Time;durP1;ratioP1;P1;durP2;ratioP2;P2;SDS_P1;SDS_P2;PMS_P1;PMS_P2;Temp;Humidity;BMP_temperature;BMP_pressure;BME280_temperature;BME280_humidity;BME280_pressure;Samples;Min_cycle;Max_cycle;Signal;HPM_P1;HPM_P2
2024/03/08 00:03:10;;;;;;;35.35;24.08;;;;;;;;;;10418864;27;20063;-65
2024/03/08 00:08:09;;;;;;;31.42;22.00;;;;;;;;;;10418991;27;20063;-62
2024/03/08 00:13:08;;;;;;;29.02;22.90;;;;;;;;;;10400848;27;20091;-65
2024/03/08 00:18:08;;;;;;;27.85;21.17;;;;;;;;;;10419607;27;20073;-64
2024/03/08 00:23:06;;;;;;;30.40;22.95;;;;;;;;;;10425942;27;20043;-64
2024/03/08 00:28:05;;;;;;;30.80;23.33;;;;;;;;;;10416251;27;20078;-63
2024/03/08 00:33:04;;;;;;;29.92;22.90;;;;;;;;;;10417526;27;20067;-64
2024/03/08 00:38:04;;;;;;;32.72;23.50;;;;;;;;;;10411995;27;20074;-64
2024/03/08 00:43:03;;;;;;;32.92;23.90;;;;;;;;;;10414447;27;20063;-65
2024/03/08 00:48:01;;;;;;;32.58;24.08;;;;;;;;;;10420139;27;20067;-65
2024/03/08 00:53:00;;;;;;;30.25;24.38;;;;;;;;;;10414763;27;20066;-64
2024/03/08 00:57:59;;;;;;;40.58;28.67;;;;;;;;;;10416796;27;20071;-64
2024/03/08 01:02:58;;;;;;;32.13;24.33;;;;;;;;;;10421826;27;20449;-64
2024/03/08 01:07:56;;;;;;;31.65;23.35;;;;;;;;;;10415312;27;20748;-64
2024/03/08 01:12:56;;;;;;;35.75;25.10;;;;;;;;;;10416038;27;20086;-64
2024/03/08 01:17:56;;;;;;;31.88;25.67;;;;;;;;;;10418397;27;20051;-64
2024/03/08 01:22:55;;;;;;;31.42;24.20;;;;;;;;;;10416599;27;20056;-64
2024/03/08 01:27:54;;;;;;;31.52;24.70;;;;;;;;;;10416708;27;20568;-64
2024/03/08 01:32:52;;;;;;;32.90;25.83;;;;;;;;;;10419289;27;20071;-64
2024/03/08 01:37:52;;;;;;;32.10;24.35;;;;;;;;;;10417050;27;20083;-63
2024/03/08 01:42:50;;;;;;;33.58;25.52;;;;;;;;;;10418485;27;20089;-65
2024/03/08 01:47:49;;;;;;;33.60;24.73;;;;;;;;;;10416987;27;20078;-64
2024/03/08 01:52:47;;;;;;;31.35;25.50;;;;;;;;;;10419471;27;20071;-64
2024/03/08 01:57:47;;;;;;;37.03;25.33;;;;;;;;;;10413353;27;20070;-64
2024/03/08 02:02:47;;;;;;;32.78;26.88;;;;;;;;;;10414710;27;20063;-65
2024/03/08 02:07:46;;;;;;;30.75;23.48;;;;;;;;;;10415413;27;20075;-64
2024/03/08 02:12:44;;;;;;;35.05;25.50;;;;;;;;;;10417693;27;20208;-64
2024/03/08 02:17:44;;;;;;;36.08;25.38;;;;;;;;;;10415346;27;20082;-65
2024/03/08 02:22:44;;;;;;;33.80;25.98;;;;;;;;;;10415221;27;20077;-62
2024/03/08 02:27:42;;;;;;;29.92;23.75;;;;;;;;;;10417064;27;20063;-63
2024/03/08 02:32:41;;;;;;;31.58;25.30;;;;;;;;;;10414589;27;20062;-65
2024/03/08 02:37:39;;;;;;;31.50;25.00;;;;;;;;;;10420144;27;20492;-65
2024/03/08 02:42:39;;;;;;;35.40;27.23;;;;;;;;;;10421002;27;20096;-64
2024/03/08 02:47:37;;;;;;;34.72;26.63;;;;;;;;;;10413895;27;20051;-65
2024/03/08 02:52:35;;;;;;;36.25;26.80;;;;;;;;;;10415639;27;20078;-65
2024/03/08 02:57:34;;;;;;;34.92;26.00;;;;;;;;;;10412109;27;20071;-66
2024/03/08 03:02:34;;;;;;;32.50;24.90;;;;;;;;;;10408451;27;20584;-64
2024/03/08 03:07:33;;;;;;;33.50;24.65;;;;;;;;;;10410802;27;20080;-64
2024/03/08 03:12:33;;;;;;;41.20;27.92;;;;;;;;;;10410546;27;20491;-63
2024/03/08 03:17:32;;;;;;;38.20;27.40;;;;;;;;;;10416802;27;20051;-64
2024/03/08 03:22:31;;;;;;;37.25;27.83;;;;;;;;;;10414752;27;20063;-63
2024/03/08 03:27:30;;;;;;;37.03;28.00;;;;;;;;;;10414115;27;20078;-65
2024/03/08 03:32:28;;;;;;;36.85;26.73;;;;;;;;;;10418994;27;20075;-64
2024/03/08 03:37:27;;;;;;;36.05;26.50;;;;;;;;;;10423061;27;20081;-65
2024/03/08 03:42:26;;;;;;;33.58;26.52;;;;;;;;;;10422443;27;20090;-64
2024/03/08 03:47:26;;;;;;;36.75;28.50;;;;;;;;;;10424237;27;20110;-63
2024/03/08 03:52:24;;;;;;;49.38;33.50;;;;;;;;;;10420081;27;20071;-63
2024/03/08 03:57:23;;;;;;;45.75;34.47;;;;;;;;;;10421925;27;20078;-64
2024/03/08 04:02:23;;;;;;;46.90;35.00;;;;;;;;;;10417821;27;20066;-64
2024/03/08 04:07:21;;;;;;;43.20;35.08;;;;;;;;;;10421564;27;20050;-64
2024/03/08 04:12:19;;;;;;;42.13;31.98;;;;;;;;;;10419104;27;20082;-64
2024/03/08 04:17:18;;;;;;;35.03;27.10;;;;;;;;;;10419382;27;20074;-63
2024/03/08 04:22:17;;;;;;;38.05;29.02;;;;;;;;;;10424857;27;20063;-65
2024/03/08 04:27:16;;;;;;;32.92;26.65;;;;;;;;;;10424550;27;20079;-63
2024/03/08 04:32:14;;;;;;;36.65;28.40;;;;;;;;;;10417193;27;20066;-64
2024/03/08 04:37:13;;;;;;;37.50;27.50;;;;;;;;;;10430143;27;20536;-64
2024/03/08 04:42:13;;;;;;;42.00;27.75;;;;;;;;;;10420853;27;20067;-64
2024/03/08 04:47:12;;;;;;;38.05;31.02;;;;;;;;;;10408809;27;20153;-64
2024/03/08 04:52:10;;;;;;;40.70;29.35;;;;;;;;;;10423222;27;20483;-65
2024/03/08 04:57:09;;;;;;;40.88;28.67;;;;;;;;;;10431069;27;20066;-64
2024/03/08 05:02:08;;;;;;;42.72;31.13;;;;;;;;;;10425496;27;20077;-64
2024/03/08 05:07:07;;;;;;;39.67;29.15;;;;;;;;;;10425194;27;20518;-64
2024/03/08 05:12:06;;;;;;;33.50;26.50;;;;;;;;;;10429402;27;20082;-65
2024/03/08 05:17:06;;;;;;;36.47;27.35;;;;;;;;;;10426672;27;20075;-63
2024/03/08 05:22:06;;;;;;;31.88;25.33;;;;;;;;;;10400626;27;20530;-64
2024/03/08 05:27:04;;;;;;;33.50;26.00;;;;;;;;;;10417834;27;20160;-64
2024/03/08 05:32:03;;;;;;;36.15;27.27;;;;;;;;;;10422459;27;20066;-63
2024/03/08 05:37:02;;;;;;;33.60;27.85;;;;;;;;;;10423845;27;20078;-63
2024/03/08 05:42:02;;;;;;;40.03;26.73;;;;;;;;;;10420018;27;20059;-66
2024/03/08 05:47:00;;;;;;;55.58;34.38;;;;;;;;;;10419670;27;20063;-63
2024/03/08 05:52:00;;;;;;;72.65;47.00;;;;;;;;;;10421979;27;20077;-64
2024/03/08 05:56:58;;;;;;;111.20;64.85;;;;;;;;;;10419943;27;20074;-61
2024/03/08 06:01:58;;;;;;;39.85;27.00;;;;;;;;;;10428336;27;20068;-62
2024/03/08 06:06:58;;;;;;;49.00;33.92;;;;;;;;;;10418262;27;20070;-61
2024/03/08 06:11:57;;;;;;;46.45;30.55;;;;;;;;;;10410908;27;20091;-61
2024/03/08 06:16:55;;;;;;;39.95;29.10;;;;;;;;;;10412303;27;20070;-61
2024/03/08 06:21:55;;;;;;;39.58;28.25;;;;;;;;;;10420714;27;20503;-61
2024/03/08 06:26:53;;;;;;;41.55;26.60;;;;;;;;;;10420746;27;20166;-62
2024/03/08 06:31:53;;;;;;;37.13;28.55;;;;;;;;;;10418849;27;20280;-61
2024/03/08 06:37:00;;;;;;;36.85;27.40;;;;;;;;;;10420913;27;20075;-62
2024/03/08 06:41:59;;;;;;;38.50;27.67;;;;;;;;;;10408202;27;20068;-61
2024/03/08 06:46:58;;;;;;;40.65;27.15;;;;;;;;;;10419918;27;20067;-61
2024/03/08 06:51:59;;;;;;;38.78;27.88;;;;;;;;;;10415070;27;20424;-61
2024/03/08 06:56:57;;;;;;;35.72;27.73;;;;;;;;;;10410892;27;20075;-62
2024/03/08 07:01:56;;;;;;;42.28;29.42;;;;;;;;;;10418513;27;20082;-61
2024/03/08 07:06:54;;;;;;;35.13;26.40;;;;;;;;;;10420501;27;20063;-61
2024/03/08 07:11:54;;;;;;;102.43;46.63;;;;;;;;;;10436252;27;20496;-60
2024/03/08 07:16:53;;;;;;;42.65;30.35;;;;;;;;;;10434242;27;20061;-60
2024/03/08 07:21:51;;;;;;;43.17;27.85;;;;;;;;;;10431436;27;20068;-62
2024/03/08 07:26:51;;;;;;;36.53;25.52;;;;;;;;;;10428534;27;20066;-61
2024/03/08 07:32:01;;;;;;;35.08;26.13;;;;;;;;;;10417020;27;20067;-61
2024/03/08 07:36:59;;;;;;;32.25;23.83;;;;;;;;;;10423653;27;20075;-60
2024/03/08 07:41:57;;;;;;;33.83;24.75;;;;;;;;;;10418822;27;20078;-59
2024/03/08 07:46:57;;;;;;;32.42;24.42;;;;;;;;;;10416695;27;20063;-61
2024/03/08 07:51:56;;;;;;;35.13;23.70;;;;;;;;;;10416222;27;20066;-60
2024/03/08 07:56:54;;;;;;;38.83;25.65;;;;;;;;;;10411964;27;20063;-61
2024/03/08 08:01:52;;;;;;;31.70;24.33;;;;;;;;;;10420347;27;20079;-61
2024/03/08 08:06:52;;;;;;;39.45;23.98;;;;;;;;;;10422915;27;20504;-60
2024/03/08 08:11:50;;;;;;;32.92;24.25;;;;;;;;;;10425609;27;20078;-60
2024/03/08 08:16:51;;;;;;;33.22;25.35;;;;;;;;;;10417790;27;20075;-60
2024/03/08 08:21:50;;;;;;;37.60;24.23;;;;;;;;;;10422182;27;20063;-60
2024/03/08 08:26:50;;;;;;;34.42;25.77;;;;;;;;;;10419765;27;20082;-60
2024/03/08 08:31:49;;;;;;;31.60;23.65;;;;;;;;;;10416800;27;20063;-61
2024/03/08 08:36:48;;;;;;;33.85;24.60;;;;;;;;;;10396143;27;20075;-62
2024/03/08 08:41:47;;;;;;;43.45;25.15;;;;;;;;;;10421715;27;20504;-63
2024/03/08 08:46:46;;;;;;;32.95;24.58;;;;;;;;;;10422750;27;20073;-63
2024/03/08 08:51:49;;;;;;;35.92;24.17;;;;;;;;;;10425497;27;20082;-62
2024/03/08 08:56:48;;;;;;;38.58;26.45;;;;;;;;;;10423781;27;20578;-61
2024/03/08 09:01:47;;;;;;;31.60;22.45;;;;;;;;;;10414682;27;20078;-62
2024/03/08 09:06:46;;;;;;;29.20;22.10;;;;;;;;;;10421792;27;20098;-60
2024/03/08 09:11:46;;;;;;;35.17;26.08;;;;;;;;;;10419882;27;20513;-61
2024/03/08 09:16:44;;;;;;;32.20;25.33;;;;;;;;;;10421091;27;20078;-60
2024/03/08 09:21:44;;;;;;;39.50;25.30;;;;;;;;;;10417221;27;20059;-61
2024/03/08 09:26:43;;;;;;;38.78;26.33;;;;;;;;;;10418617;27;20067;-61
2024/03/08 09:31:41;;;;;;;35.72;24.77;;;;;;;;;;10414604;27;20737;-61
2024/03/08 09:36:41;;;;;;;34.55;25.83;;;;;;;;;;10423115;27;20081;-60
2024/03/08 09:41:41;;;;;;;32.10;23.50;;;;;;;;;;10419958;27;20063;-62
2024/03/08 09:46:40;;;;;;;36.85;24.88;;;;;;;;;;10419710;27;20090;-60
2024/03/08 09:51:40;;;;;;;35.17;22.85;;;;;;;;;;10413284;27;20103;-60
2024/03/08 09:56:41;;;;;;;37.75;26.92;;;;;;;;;;10421274;27;20067;-61
2024/03/08 10:01:41;;;;;;;31.27;23.38;;;;;;;;;;10420229;27;20078;-60
2024/03/08 10:06:40;;;;;;;39.58;27.35;;;;;;;;;;10430822;27;20063;-59
2024/03/08 10:11:39;;;;;;;35.75;23.83;;;;;;;;;;10432432;27;20066;-61
2024/03/08 10:16:37;;;;;;;38.45;25.27;;;;;;;;;;10422655;27;20071;-60
2024/03/08 10:21:37;;;;;;;30.65;24.05;;;;;;;;;;10426436;27;20070;-60
2024/03/08 10:26:37;;;;;;;35.63;24.17;;;;;;;;;;10417185;27;20574;-59
2024/03/08 10:31:36;;;;;;;42.95;28.17;;;;;;;;;;10421876;27;20093;-59
2024/03/08 10:36:37;;;;;;;31.48;22.67;;;;;;;;;;10413982;27;20511;-61
2024/03/08 10:41:38;;;;;;;30.20;24.52;;;;;;;;;;10412186;27;20083;-60
2024/03/08 10:46:42;;;;;;;31.10;23.05;;;;;;;;;;10409180;27;20079;-61
2024/03/08 10:51:41;;;;;;;42.70;26.40;;;;;;;;;;10414167;27;20071;-60
2024/03/08 10:56:41;;;;;;;46.47;36.08;;;;;;;;;;10417653;27;20070;-60
2024/03/08 11:01:40;;;;;;;29.98;23.48;;;;;;;;;;10426767;27;20071;-61
2024/03/08 11:06:47;;;;;;;30.70;24.63;;;;;;;;;;10412443;27;20059;-60
2024/03/08 11:11:46;;;;;;;36.38;28.70;;;;;;;;;;10422859;27;20536;-62
2024/03/08 11:16:45;;;;;;;37.10;26.08;;;;;;;;;;10414244;27;20070;-61
2024/03/08 11:21:44;;;;;;;39.85;31.65;;;;;;;;;;10422484;28;20133;-60
2024/03/08 11:26:43;;;;;;;36.83;27.80;;;;;;;;;;10418246;27;20082;-60
2024/03/08 11:31:45;;;;;;;39.38;28.42;;;;;;;;;;10423134;27;20070;-60
2024/03/08 11:36:44;;;;;;;41.97;30.77;;;;;;;;;;10415301;27;20078;-61
2024/03/08 11:41:42;;;;;;;36.28;26.48;;;;;;;;;;10416796;27;20071;-60
2024/03/08 11:46:46;;;;;;;44.95;28.45;;;;;;;;;;10417742;27;20453;-60
2024/03/08 11:51:46;;;;;;;41.50;28.27;;;;;;;;;;10412559;27;20063;-60
2024/03/08 11:56:47;;;;;;;39.78;31.90;;;;;;;;;;10431951;27;20078;-60
2024/03/08 12:01:57;;;;;;;38.80;25.95;;;;;;;;;;10430301;27;20066;-62
2024/03/08 12:06:56;;;;;;;46.35;25.95;;;;;;;;;;10423146;27;20067;-59
2024/03/08 12:12:03;;;;;;;40.67;27.65;;;;;;;;;;10417821;27;20083;-60
2024/03/08 12:17:04;;;;;;;45.33;29.38;;;;;;;;;;10423564;27;20067;-61
2024/03/08 12:22:10;;;;;;;47.85;32.17;;;;;;;;;;10421525;27;20063;-61
2024/03/08 12:27:22;;;;;;;44.42;29.50;;;;;;;;;;10436119;27;20075;-61
2024/03/08 12:32:23;;;;;;;41.45;30.10;;;;;;;;;;10419718;27;20518;-62
2024/03/08 12:37:26;;;;;;;29.50;23.70;;;;;;;;;;10421651;27;20075;-61
2024/03/08 12:42:30;;;;;;;36.47;27.20;;;;;;;;;;10418114;27;20067;-61
2024/03/08 12:47:35;;;;;;;34.90;24.40;;;;;;;;;;10424697;27;20078;-61
2024/03/08 12:52:36;;;;;;;31.33;23.05;;;;;;;;;;10424156;27;20070;-61
2024/03/08 12:57:35;;;;;;;43.33;28.77;;;;;;;;;;10428546;27;20067;-62
2024/03/08 13:02:33;;;;;;;37.13;24.70;;;;;;;;;;10421225;27;20070;-59
2024/03/08 13:07:33;;;;;;;37.45;27.27;;;;;;;;;;10416669;27;20085;-60
2024/03/08 13:12:34;;;;;;;40.10;30.25;;;;;;;;;;10421780;27;20553;-62
2024/03/08 13:17:33;;;;;;;56.92;36.65;;;;;;;;;;10417203;27;20071;-62
2024/03/08 13:22:32;;;;;;;41.53;27.08;;;;;;;;;;10419791;27;20078;-63
2024/03/08 13:27:36;;;;;;;35.53;26.48;;;;;;;;;;10420318;27;20063;-61
2024/03/08 13:32:38;;;;;;;42.22;30.23;;;;;;;;;;10419052;27;20079;-63
2024/03/08 13:37:41;;;;;;;43.13;31.17;;;;;;;;;;10416199;27;20077;-62
2024/03/08 13:42:41;;;;;;;38.67;26.02;;;;;;;;;;10402136;27;20083;-63
2024/03/08 13:47:40;;;;;;;35.00;24.67;;;;;;;;;;10418596;27;20066;-62
2024/03/08 13:52:39;;;;;;;39.15;24.10;;;;;;;;;;10425925;27;20148;-63
2024/03/08 13:57:37;;;;;;;31.40;25.92;;;;;;;;;;10421965;27;20074;-62
2024/03/08 14:02:37;;;;;;;35.92;25.80;;;;;;;;;;10415820;27;20063;-62
2024/03/08 14:07:35;;;;;;;41.03;26.52;;;;;;;;;;10402894;27;20420;-63
2024/03/08 14:12:33;;;;;;;36.00;24.63;;;;;;;;;;10417750;27;20534;-62
2024/03/08 14:17:32;;;;;;;43.63;30.35;;;;;;;;;;10418617;27;20078;-62
2024/03/08 14:22:32;;;;;;;35.85;26.80;;;;;;;;;;10418681;27;20074;-61
2024/03/08 14:27:30;;;;;;;30.63;22.17;;;;;;;;;;10418941;27;20078;-63
2024/03/08 14:32:29;;;;;;;31.92;24.98;;;;;;;;;;10409089;27;20168;-63
2024/03/08 14:37:29;;;;;;;34.60;23.67;;;;;;;;;;10420121;27;20078;-63
2024/03/08 14:42:29;;;;;;;34.60;25.77;;;;;;;;;;10415580;27;20070;-62
2024/03/08 14:47:28;;;;;;;53.38;36.20;;;;;;;;;;10416989;27;20071;-62
2024/03/08 14:52:29;;;;;;;31.02;24.85;;;;;;;;;;10418711;27;20079;-62
2024/03/08 14:57:32;;;;;;;35.58;26.17;;;;;;;;;;10414504;27;20077;-62
2024/03/08 15:02:30;;;;;;;33.90;26.77;;;;;;;;;;10410918;27;20068;-63
2024/03/08 15:07:30;;;;;;;52.03;38.22;;;;;;;;;;10415318;27;20067;-62
2024/03/08 15:12:30;;;;;;;38.17;27.52;;;;;;;;;;10412923;27;20090;-64
2024/03/08 15:17:28;;;;;;;32.72;24.17;;;;;;;;;;10412971;27;20102;-63
2024/03/08 15:22:28;;;;;;;39.95;25.60;;;;;;;;;;10412797;27;20067;-62
2024/03/08 15:27:26;;;;;;;37.63;25.90;;;;;;;;;;10420931;27;20067;-64
2024/03/08 15:32:27;;;;;;;36.05;29.67;;;;;;;;;;10435948;27;20074;-64
2024/03/08 15:37:28;;;;;;;36.75;24.40;;;;;;;;;;10427371;27;20090;-64
2024/03/08 15:42:26;;;;;;;31.23;24.55;;;;;;;;;;10425948;27;20070;-64
2024/03/08 15:47:26;;;;;;;38.67;25.10;;;;;;;;;;10425521;27;20063;-63
2024/03/08 15:52:24;;;;;;;37.33;25.33;;;;;;;;;;10424000;27;20062;-63
2024/03/08 15:57:23;;;;;;;43.72;31.08;;;;;;;;;;10423433;27;20503;-63
2024/03/08 16:02:23;;;;;;;47.20;33.17;;;;;;;;;;10422763;27;20153;-62
2024/03/08 16:07:22;;;;;;;44.50;32.72;;;;;;;;;;10417017;27;20093;-63
2024/03/08 16:12:21;;;;;;;50.78;33.22;;;;;;;;;;10420430;27;20078;-62
2024/03/08 16:17:19;;;;;;;41.53;26.60;;;;;;;;;;10418923;27;20063;-62
2024/03/08 16:22:17;;;;;;;37.17;26.88;;;;;;;;;;10413163;27;20074;-63
2024/03/08 16:27:17;;;;;;;40.38;30.45;;;;;;;;;;10420662;27;20075;-63
2024/03/08 16:32:20;;;;;;;41.92;33.60;;;;;;;;;;10415403;27;20086;-63
2024/03/08 16:37:18;;;;;;;38.97;32.65;;;;;;;;;;10414427;27;20116;-63
2024/03/08 16:42:20;;;;;;;55.55;31.70;;;;;;;;;;10420176;27;20082;-62
2024/03/08 16:47:22;;;;;;;38.10;30.42;;;;;;;;;;10416926;27;20059;-63
2024/03/08 16:52:22;;;;;;;45.70;34.90;;;;;;;;;;10416487;27;20066;-62
2024/03/08 16:57:25;;;;;;;81.00;57.15;;;;;;;;;;10412951;27;20445;-62
2024/03/08 17:02:24;;;;;;;44.58;33.83;;;;;;;;;;10420189;27;20499;-62
2024/03/08 17:07:23;;;;;;;97.95;71.28;;;;;;;;;;10422432;27;20078;-62
2024/03/08 17:12:23;;;;;;;85.38;63.33;;;;;;;;;;10424091;27;20073;-62
2024/03/08 17:17:24;;;;;;;56.95;40.85;;;;;;;;;;10410655;27;20538;-62
2024/03/08 17:22:22;;;;;;;52.40;38.03;;;;;;;;;;10417101;27;20066;-63
2024/03/08 17:27:24;;;;;;;42.30;32.28;;;;;;;;;;10419656;27;20880;-63
2024/03/08 17:32:24;;;;;;;47.25;34.88;;;;;;;;;;10425532;27;20081;-62
2024/03/08 17:37:23;;;;;;;65.05;39.38;;;;;;;;;;10426798;27;20073;-62
2024/03/08 17:42:22;;;;;;;48.28;35.50;;;;;;;;;;10420663;27;20054;-62
2024/03/08 17:47:21;;;;;;;63.88;44.05;;;;;;;;;;10425110;27;20082;-64
2024/03/08 17:52:22;;;;;;;49.03;34.83;;;;;;;;;;10419296;27;20496;-61
2024/03/08 17:57:20;;;;;;;54.72;34.83;;;;;;;;;;10417229;27;20063;-63
2024/03/08 18:02:19;;;;;;;108.10;75.40;;;;;;;;;;10421347;27;20440;-64
2024/03/08 18:07:18;;;;;;;89.13;60.20;;;;;;;;;;10422103;27;20082;-63
2024/03/08 18:12:18;;;;;;;93.20;60.47;;;;;;;;;;10416282;27;20078;-63
2024/03/08 18:17:16;;;;;;;91.80;57.67;;;;;;;;;;10419644;27;20085;-61
2024/03/08 18:22:14;;;;;;;48.30;34.13;;;;;;;;;;10411750;27;20104;-64
2024/03/08 18:27:14;;;;;;;61.33;43.53;;;;;;;;;;10416682;27;20062;-63
2024/03/08 18:32:13;;;;;;;45.67;35.15;;;;;;;;;;10424127;27;20062;-64
2024/03/08 18:37:12;;;;;;;63.38;44.53;;;;;;;;;;10414993;27;20063;-64
2024/03/08 18:42:13;;;;;;;49.70;39.78;;;;;;;;;;10420185;27;20522;-64
2024/03/08 18:47:11;;;;;;;44.75;34.95;;;;;;;;;;10419559;27;20067;-64
2024/03/08 18:52:11;;;;;;;53.90;36.05;;;;;;;;;;10419373;27;20079;-64
2024/03/08 18:57:10;;;;;;;45.67;33.65;;;;;;;;;;10421463;27;20101;-64
2024/03/08 19:02:08;;;;;;;68.57;45.28;;;;;;;;;;10414590;27;20071;-63
2024/03/08 19:07:09;;;;;;;40.33;32.95;;;;;;;;;;10420953;27;20078;-64
2024/03/08 19:12:12;;;;;;;43.35;30.00;;;;;;;;;;10419313;27;20538;-63
2024/03/08 19:17:12;;;;;;;46.03;28.75;;;;;;;;;;10414820;27;20079;-64
2024/03/08 19:22:13;;;;;;;40.58;27.73;;;;;;;;;;10416460;27;20368;-63
2024/03/08 19:27:13;;;;;;;41.50;31.60;;;;;;;;;;10416731;27;20062;-63
2024/03/08 19:32:11;;;;;;;37.85;29.73;;;;;;;;;;10419470;28;20098;-64
2024/03/08 19:37:09;;;;;;;41.58;31.08;;;;;;;;;;10420141;27;20071;-63
2024/03/08 19:42:09;;;;;;;45.40;33.42;;;;;;;;;;10422875;27;20497;-63
2024/03/08 19:47:11;;;;;;;35.50;29.20;;;;;;;;;;10418226;27;20720;-63
2024/03/08 19:52:10;;;;;;;38.85;29.45;;;;;;;;;;10418408;27;20563;-63
2024/03/08 19:57:08;;;;;;;32.67;25.88;;;;;;;;;;10422961;28;20059;-63
2024/03/08 20:02:08;;;;;;;41.20;31.67;;;;;;;;;;10414813;27;20106;-63
2024/03/08 20:07:07;;;;;;;43.28;30.95;;;;;;;;;;10419128;27;20456;-62
2024/03/08 20:12:07;;;;;;;52.30;33.10;;;;;;;;;;10419357;27;20477;-62
2024/03/08 20:17:08;;;;;;;58.67;37.83;;;;;;;;;;10409675;27;20075;-62
2024/03/08 20:22:07;;;;;;;52.90;37.88;;;;;;;;;;10424239;27;20521;-62
2024/03/08 20:27:05;;;;;;;136.65;103.40;;;;;;;;;;10428250;27;20066;-63
2024/03/08 20:32:04;;;;;;;39.00;25.48;;;;;;;;;;10422074;27;20124;-63
2024/03/08 20:37:06;;;;;;;40.95;28.00;;;;;;;;;;10404752;27;20534;-63
2024/03/08 20:42:05;;;;;;;36.67;26.88;;;;;;;;;;10417363;27;20078;-62
2024/03/08 20:47:04;;;;;;;32.97;25.65;;;;;;;;;;10414850;27;20075;-63
2024/03/08 20:52:05;;;;;;;33.13;27.20;;;;;;;;;;10416172;27;20063;-63
2024/03/08 20:57:03;;;;;;;43.92;32.97;;;;;;;;;;10420697;27;20462;-63
2024/03/08 21:02:02;;;;;;;35.42;28.40;;;;;;;;;;10414233;27;20071;-63
2024/03/08 21:07:00;;;;;;;74.55;47.78;;;;;;;;;;10417946;27;20556;-64
2024/03/08 21:12:01;;;;;;;41.63;34.35;;;;;;;;;;10414483;27;20124;-64
2024/03/08 21:16:59;;;;;;;39.25;28.85;;;;;;;;;;10420093;27;20460;-63
2024/03/08 21:21:57;;;;;;;40.90;28.33;;;;;;;;;;10416180;27;20070;-64
2024/03/08 21:26:56;;;;;;;38.00;26.60;;;;;;;;;;10433153;27;20074;-63
2024/03/08 21:31:56;;;;;;;37.38;28.98;;;;;;;;;;10417264;27;20086;-63
2024/03/08 21:36:54;;;;;;;34.75;26.45;;;;;;;;;;10420060;27;20067;-64
2024/03/08 21:41:55;;;;;;;38.92;27.88;;;;;;;;;;10426171;27;20078;-63
2024/03/08 21:46:53;;;;;;;35.53;26.80;;;;;;;;;;10420536;27;20039;-64
2024/03/08 21:51:52;;;;;;;43.28;31.55;;;;;;;;;;10416935;27;20469;-63
2024/03/08 21:56:51;;;;;;;54.45;39.08;;;;;;;;;;10434005;27;20074;-63
2024/03/08 22:01:52;;;;;;;36.03;26.92;;;;;;;;;;10413958;27;20078;-63
2024/03/08 22:06:53;;;;;;;43.15;29.85;;;;;;;;;;10409969;27;20075;-63
2024/03/08 22:11:53;;;;;;;40.75;29.73;;;;;;;;;;10408679;27;20075;-65
2024/03/08 22:16:51;;;;;;;37.33;29.00;;;;;;;;;;10412087;27;20071;-63
2024/03/08 22:21:50;;;;;;;36.65;28.38;;;;;;;;;;10415866;27;20062;-63
2024/03/08 22:26:48;;;;;;;60.05;43.33;;;;;;;;;;10415709;27;20526;-64
2024/03/08 22:31:50;;;;;;;41.05;32.15;;;;;;;;;;10394903;27;20043;-64
2024/03/08 22:36:49;;;;;;;52.30;35.05;;;;;;;;;;10414438;27;20050;-64
2024/03/08 22:41:49;;;;;;;85.20;60.38;;;;;;;;;;10414419;27;20079;-64
2024/03/08 22:46:47;;;;;;;49.55;38.15;;;;;;;;;;10415393;27;20063;-64
2024/03/08 22:51:47;;;;;;;95.45;63.33;;;;;;;;;;10419474;27;20066;-63
2024/03/08 22:56:46;;;;;;;149.40;95.22;;;;;;;;;;10415311;27;20071;-64
2024/03/08 23:01:45;;;;;;;51.15;33.30;;;;;;;;;;10417036;27;20085;-63
2024/03/08 23:06:43;;;;;;;108.65;69.95;;;;;;;;;;10415570;27;20163;-63
2024/03/08 23:11:43;;;;;;;140.60;96.88;;;;;;;;;;10422617;27;20078;-64
2024/03/08 23:16:43;;;;;;;71.95;45.97;;;;;;;;;;10417389;27;20074;-62
2024/03/08 23:21:42;;;;;;;41.17;32.63;;;;;;;;;;10417088;27;20074;-63
2024/03/08 23:26:41;;;;;;;41.90;32.47;;;;;;;;;;10413406;27;20067;-63
2024/03/08 23:31:41;;;;;;;36.70;28.27;;;;;;;;;;10411519;27;20078;-62
2024/03/08 23:36:40;;;;;;;36.90;29.52;;;;;;;;;;10411660;27;20068;-62
2024/03/08 23:41:41;;;;;;;39.10;29.63;;;;;;;;;;10414138;27;20943;-62
2024/03/08 23:46:41;;;;;;;38.63;29.25;;;;;;;;;;10414932;27;20067;-63
2024/03/08 23:51:39;;;;;;;40.83;28.02;;;;;;;;;;10421784;27;20065;-63
2024/03/08 23:56:39;;;;;;;38.47;29.42;;;;;;;;;;10423252;27;20088;-63
